Terminal Aerodrome Forecast
Issued by NWS Houston/Galveston TX

Home | Current Version | Previous Version | Text Only | Print | Product List | Glossary On
Versions: 1 2 3 4 5 6 7 8 9 10 11 12 13 14 15 16 17 18 19 20 21 22 23 24 25 26 27 28 29 30 31 32 33
000
FTUS44 KHGX 291725
TAFHOU
TAF
KHOU 291725Z 2918/3018 12007KT P6SM SCT020 BKN120
     FM291900 15008KT P6SM SCT035 SCT250
     FM300100 14007KT P6SM SCT250
     FM300900 00000KT P6SM MIFG SCT015
     FM301500 13004KT P6SM FEW020 BKN200=

USA.gov is the U.S. government's official web portal to all federal, state and local government web resources and services.